• Join FlightAware (Why Join?)
  • Login
  • US Flag 
08:10AM EST


 

Airport Tracker/Info


-or-


 

Live Flight TrackerFlight Track Log ✈ AAY862 ✈ 17-Jun-2014 ✈ KPIE - KCID

Flight Track Log - Related Links

Times and Time Zones

All times are in EDT time to prevent confusion due to time zone crossing. See the AAY862 flight status page for this flight to view local times or setup timezone preferences in your user account.

Time Position Orientation Groundspeed Altitude Reporting Facility
EDT Latitude Longitude Course Direction KTS MPH feet Rate Location/Type
02:03PM 27.9333 -82.7000 331° Northwest 172 198 900  Level Tampa TRACON
02:04PM 27.9833 -82.6833 16° North 240 276 1,700 1,980 Climbing Tampa TRACON
02:05PM 28.0500 -82.6833 360° North 285 328 4,900 2,940 Climbing Tampa TRACON
02:07PM 28.1678 -82.7253 343° North 278 320 9,400 2,460 Climbing Miami Center
02:08PM 28.2625 -82.7631 341° North 291 335 11,700 1,800 Climbing Jacksonville Center
02:09PM 28.4911 -83.0430 331° Northwest  Level FlightAware Approximate
02:09PM 28.3606 -82.7983 342° North 325 374 13,200  Level Jacksonville Center
02:10PM 28.4672 -82.8383 342° North 368 423 15,600 2,280 Climbing Jacksonville Center
02:11PM 28.5778 -82.8783 342° North 399 459 17,800 1,800 Climbing Jacksonville Center
02:12PM 28.6675 -82.9139 341° North 411 473 19,300 1,740 Climbing Jacksonville Center
02:13PM 28.7928 -82.9589 343° North 423 487 21,300 1,680 Climbing Jacksonville Center
02:14PM 28.9117 -83.0017 343° North 435 501 22,700 1,500 Climbing Jacksonville Center
02:15PM 29.0306 -83.0469 342° North 442 509 24,400 1,560 Climbing Jacksonville Center
02:16PM 29.1472 -83.1114 334° Northwest 448 516 25,900 1,800 Climbing Jacksonville Center
02:17PM 29.2600 -83.1783 333° Northwest 454 522 28,000 2,040 Climbing Jacksonville Center
02:18PM 29.3703 -83.2428 333° Northwest 454 522 30,000 1,560 Climbing Jacksonville Center
02:19PM 29.4789 -83.3100 332° Northwest 449 517 31,200 1,200 Climbing Jacksonville Center
02:20PM 29.5850 -83.3725 333° Northwest 444 511 32,400 1,140 Climbing Jacksonville Center
02:21PM 29.6933 -83.4353 333° Northwest 439 505 33,500 780 Climbing Jacksonville Center
02:22PM 29.8100 -83.5031 333° Northwest 428 493 34,000 180 Climbing Jacksonville Center
02:23PM 29.9203 -83.5661 334° Northwest 428 493 33,900 -60 Descending Jacksonville Center
02:24PM 30.0283 -83.6292 333° Northwest 434 499 33,900  Level Jacksonville Center
02:25PM 30.1367 -83.6947 332° Northwest 429 494 33,900  Level Jacksonville Center
02:26PM 30.2469 -83.7583 334° Northwest 429 494 33,900  Level Jacksonville Center
02:27PM 30.3550 -83.8242 332° Northwest 429 494 33,900  Level Jacksonville Center
02:28PM 30.4631 -83.8878 333° Northwest 429 494 33,900  Level Jacksonville Center
02:29PM 30.5586 -83.9444 333° Northwest 424 488 34,000  Climbing Jacksonville Center
02:30PM 30.6644 -84.0108 332° Northwest 424 488 34,000  Level Jacksonville Center
02:31PM 30.7747 -84.0750 333° Northwest 424 488 34,000  Level Jacksonville Center
02:32PM 30.8825 -84.1417 332° Northwest 430 495 34,000  Level Jacksonville Center
02:33PM 30.9883 -84.2061 332° Northwest 430 495 34,000  Level Jacksonville Center
02:35PM 31.2017 -84.3350 333° Northwest 430 495 34,000  Level Atlanta Center
02:36PM 31.3058 -84.3986 332° Northwest 430 495 34,000  Level Atlanta Center
02:37PM 31.3994 -84.4572 332° Northwest 425 489 34,000  Level Atlanta Center
02:38PM 31.5056 -84.5236 332° Northwest 425 489 34,000  Level Atlanta Center
02:39PM 31.6119 -84.5875 333° Northwest 425 489 34,000  Level Atlanta Center
02:40PM 31.7222 -84.6567 332° Northwest 430 495 34,000  Level Atlanta Center
02:41PM 31.8283 -84.7208 333° Northwest 430 495 34,000  Level Atlanta Center
02:42PM 31.9322 -84.7853 332° Northwest 430 495 34,000  Level Atlanta Center
02:43PM 32.0403 -84.8522 332° Northwest 430 495 34,000  Level Atlanta Center
02:44PM 32.1483 -84.9194 332° Northwest 430 495 34,000  Level Atlanta Center
02:45PM 32.2544 -84.9844 333° Northwest 430 495 34,000  Level Atlanta Center
02:46PM 32.3603 -85.0469 333° Northwest 425 489 34,000  Level Atlanta Center
02:47PM 32.4683 -85.1147 332° Northwest 430 495 34,000  Level Atlanta Center
02:48PM 32.5742 -85.1800 333° Northwest 425 489 34,000  Level Atlanta Center
02:49PM 32.6842 -85.2481 332° Northwest 431 496 34,000  Level Atlanta Center
02:50PM 32.8044 -85.3264 331° Northwest 438 504 34,000  Level Atlanta Center
02:51PM 32.9061 -85.3922 331° Northwest 433 498 34,000  Level Atlanta Center
02:52PM 33.0117 -85.4583 332° Northwest 428 493 34,000  Level Atlanta Center
02:53PM 33.1194 -85.5269 332° Northwest 428 493 34,000  Level Atlanta Center
02:54PM 33.2189 -85.5908 332° Northwest 428 493 34,000  Level Atlanta Center
02:55PM 33.3244 -85.6547 333° Northwest 428 493 34,000  Level Atlanta Center
02:56PM 33.4258 -85.7214 331° Northwest 423 487 34,000  Level Atlanta Center
02:57PM 33.5314 -85.7931 330° Northwest 428 493 34,000  Level Atlanta Center
02:58PM 33.6244 -85.8500 333° Northwest 428 493 34,000  Level Atlanta Center
02:59PM 33.7278 -85.9147 332° Northwest 422 486 34,000  Level Atlanta Center
03:00PM 33.8289 -85.9844 330° Northwest 417 480 34,000  Level Atlanta Center
03:01PM 33.9322 -86.0517 332° Northwest 417 480 34,000  Level Atlanta Center
03:02PM 34.0375 -86.1194 332° Northwest 417 480 34,000  Level Atlanta Center
03:03PM 34.1367 -86.1847 331° Northwest 412 474 34,000  Level Atlanta Center
03:04PM 34.2419 -86.2525 332° Northwest 412 474 34,000  Level Atlanta Center
03:05PM 34.3431 -86.3181 332° Northwest 412 474 34,000  Level Atlanta Center
03:06PM 34.4383 -86.3861 330° Northwest 420 483 34,000  Level Memphis Center
03:07PM 34.5408 -86.4533 332° Northwest 420 483 34,000  Level Memphis Center
03:08PM 34.6644 -86.5347 332° Northwest 420 483 34,000  Level Memphis Center
03:09PM 34.7658 -86.6025 331° Northwest 421 484 34,000  Level Memphis Center
03:10PM 34.8672 -86.6697 331° Northwest 420 483 34,000  Level Memphis Center
03:11PM 34.9694 -86.7383 331° Northwest 420 483 34,000  Level Memphis Center
03:12PM 35.0733 -86.8081 331° Northwest 422 486 34,000  Level Memphis Center
03:13PM 35.1975 -86.8925 331° Northwest 424 488 34,000  Level Memphis Center
03:14PM 35.3008 -86.9625 331° Northwest 424 488 34,000  Level Memphis Center
03:15PM 35.4069 -87.0361 331° Northwest 425 489 34,000  Level Memphis Center
03:16PM 35.5108 -87.1069 331° Northwest 425 489 34,000  Level Memphis Center
03:17PM 35.6158 -87.1778 331° Northwest 425 489 34,000  Level Memphis Center
03:18PM 35.7200 -87.2500 331° Northwest 425 489 34,000  Level Memphis Center
03:19PM 35.8244 -87.3206 331° Northwest 424 488 34,000  Level Memphis Center
03:20PM 35.9475 -87.4067 330° Northwest 425 489 34,000  Level Memphis Center
03:21PM 36.0522 -87.4792 331° Northwest 425 489 34,000  Level Memphis Center
03:22PM 36.1564 -87.5542 330° Northwest 426 490 34,000  Level Memphis Center
03:23PM 36.2400 -87.6644 313° West 435 501 34,000  Level Memphis Center
03:24PM 36.3181 -87.7786 310° West 434 499 34,000  Level Memphis Center
03:25PM 36.4003 -87.8889 313° West 433 498 34,000  Level Memphis Center
03:26PM 36.5106 -87.9556 334° Northwest 435 501 34,000  Level Memphis Center
03:27PM 36.6194 -88.0253 333° Northwest 433 498 34,000  Level Memphis Center
03:28PM 36.7272 -88.0947 333° Northwest 433 498 34,000  Level Memphis Center
03:30PM 36.8347 -88.1639 333° Northwest 433 498 34,000  Level Memphis Center
03:31PM 36.9622 -88.2464 333° Northwest 433 498 34,000  Level Memphis Center
03:32PM 37.0681 -88.3167 332° Northwest 432 497 34,000  Level Memphis Center
03:33PM 37.1744 -88.3850 333° Northwest 432 497 34,000  Level Memphis Center
03:34PM 37.2806 -88.4547 332° Northwest 431 496 34,000  Level Memphis Center
03:35PM 37.3872 -88.5239 333° Northwest 432 497 34,000  Level Memphis Center
03:36PM 37.5150 -88.6106 332° Northwest 432 497 34,000  Level Memphis Center
03:37PM 37.6225 -88.6797 333° Northwest 432 497 34,000  Level Memphis Center
03:37PM 37.6869 -88.7228 332° Northwest 434 499 34,000  Level Kansas City Center
03:38PM 37.8078 -88.8056 332° Northwest 440 506 34,000  Level Kansas City Center
03:40PM 37.9083 -88.8714 333° Northwest 439 505 34,000  Level Kansas City Center
03:41PM 38.0156 -88.9419 333° Northwest 439 505 34,000  Level Kansas City Center
03:42PM 38.1231 -89.0153 332° Northwest 438 504 34,000  Level Kansas City Center
03:43PM 38.2322 -89.0889 332° Northwest 437 503 34,000  Level Kansas City Center
03:44PM 38.3378 -89.1603 332° Northwest 439 505 34,000  Level Kansas City Center
03:45PM 38.4600 -89.2411 333° Northwest 440 506 34,000  Level Kansas City Center
03:46PM 38.5875 -89.3303 331° Northwest 438 504 34,000  Level Kansas City Center
03:47PM 38.6964 -89.4044 332° Northwest 438 504 34,000  Level Kansas City Center
03:48PM 38.8036 -89.4769 332° Northwest 438 504 34,000  Level Kansas City Center
03:49PM 38.9125 -89.5508 332° Northwest 438 504 34,000  Level Kansas City Center
03:50PM 39.0206 -89.6272 331° Northwest 438 504 34,000  Level Kansas City Center
03:51PM 39.1275 -89.7028 331° Northwest 438 504 34,000  Level Kansas City Center
03:52PM 39.2375 -89.7778 332° Northwest 440 506 34,000  Level Kansas City Center
03:53PM 39.3439 -89.8522 332° Northwest 440 506 34,000  Level Kansas City Center
03:54PM 39.4722 -89.9422 332° Northwest 440 506 34,000  Level Kansas City Center
03:55PM 39.5775 -90.0161 332° Northwest 439 505 34,000  Level Kansas City Center
03:56PM 39.6839 -90.0911 332° Northwest 438 504 34,000  Level Kansas City Center
03:57PM 39.7922 -90.1700 331° Northwest 438 504 34,000 -600 Level Kansas City Center
03:58PM 39.8994 -90.2453 332° Northwest 438 504 32,800 -1,560 Descending Kansas City Center
04:00PM 40.0694 -90.3681 331° Northwest 436 502 30,100 -1,860 Descending Chicago Center
04:00PM 40.1350 -90.4164 331° Northwest 438 504 29,000 -1,380 Descending Kansas City Center
04:01PM 40.2444 -90.4931 332° Northwest 439 505 28,000 -540 Descending Kansas City Center
04:02PM 40.3536 -90.5717 331° Northwest 442 509 28,000  Level Kansas City Center
04:03PM 40.3986 -90.6053 330° Northwest 448 516 28,000  Level Chicago Center
04:04PM 40.5292 -90.6997 331° Northwest 447 514 28,000 -60 Level Chicago Center
04:05PM 40.6567 -90.7186 354° North 468 539 27,900 -1,320 Descending Chicago Center
04:06PM 40.7894 -90.7081 North 473 544 25,300 -2,220 Descending Chicago Center
04:07PM 40.9100 -90.7489 346° North 447 514 23,400 -1,620 Descending Chicago Center
04:08PM 41.0083 -90.8403 325° Northwest 437 503 22,000 -720 Descending Chicago Center
04:09PM 41.0947 -90.9258 323° Northwest 405 466 22,000 -660 Level Chicago Center
04:10PM 41.1953 -91.0256 323° Northwest 382 440 20,700 -1,800 Descending Chicago Center
04:11PM 41.2858 -91.1136 324° Northwest 397 457 18,300 -2,400 Descending Chicago Center
04:12PM 41.3744 -91.2008 324° Northwest 398 458 15,700 -2,520 Descending Chicago Center
04:13PM 41.4603 -91.2861 323° Northwest 390 449 13,100 -1,800 Descending Chicago Center
04:14PM 41.5389 -91.3639 323° Northwest 376 433 12,000 -1,200 Descending Chicago Center
04:15PM 41.6214 -91.4461 323° Northwest 319 367 10,700 -1,740 Descending Chicago Center
04:16PM 41.6878 -91.5119 323° Northwest 303 349 8,500 -2,340 Descending Chicago Center
04:17PM 41.7264 -91.5983 301° West 277 319 5,900 -2,460 Descending Chicago Center
04:18PM 41.7578 -91.6897 295° West 273 314 3,500 -1,680 Descending Chicago Center
04:19PM 41.7956 -91.7689 303° West 268 308 2,500 -660 Descending Chicago Center
04:20PM 41.8472 -91.8214 323° Northwest 233 268 2,200 -360 Descending Chicago Center
04:21PM 41.8847 -91.7981 25° Northeast 190 219 1,800 -480 Descending Chicago Center
04:22PM 41.8853 -91.7428 89° East 181 208 1,300 -540 Descending Chicago Center
04:24PM 41.8847 -91.7108 90° East  Level Estimated